createdAt,value
2023-02-23T00:02:07.253Z,12.35
2023-02-23T00:06:11.496Z,11.95
2023-02-23T00:10:19.859Z,15.63
2023-02-23T00:14:25.204Z,14.68
2023-02-23T00:18:30.735Z,12.85
2023-02-23T00:22:34.214Z,11.95
2023-02-23T00:26:43.134Z,11.75
2023-02-23T00:30:47.142Z,15.10
2023-02-23T00:34:50.649Z,11.30
2023-02-23T00:38:55.449Z,14.75
2023-02-23T00:43:00.770Z,13.50
2023-02-23T00:47:04.517Z,14.07
2023-02-23T00:51:07.883Z,16.42
2023-02-23T00:55:13.168Z,14.90
2023-02-23T00:59:18.808Z,13.27
2023-02-23T01:03:22.247Z,12.30
2023-02-23T01:07:27.448Z,17.17
2023-02-23T01:11:31.574Z,12.27
2023-02-23T01:15:36.861Z,11.68
2023-02-23T01:19:40.262Z,16.27
2023-02-23T01:23:43.785Z,15.75
2023-02-23T01:27:47.475Z,11.95
2023-02-23T01:31:52.738Z,13.15
2023-02-23T01:36:00.379Z,13.02
2023-02-23T01:40:11.360Z,12.40
2023-02-23T01:44:52.243Z,14.30
2023-02-23T01:48:58.000Z,11.45
2023-02-23T01:53:01.529Z,11.20
2023-02-23T01:57:06.860Z,15.07
2023-02-23T02:01:10.828Z,14.93
2023-02-23T02:05:16.877Z,14.50
2023-02-23T02:09:21.276Z,16.15
2023-02-23T02:13:29.770Z,16.23
2023-02-23T02:17:41.206Z,16.73
2023-02-23T02:22:26.164Z,12.20
2023-02-23T02:26:38.960Z,10.13
2023-02-23T02:35:38.674Z,14.13
2023-02-23T02:39:54.558Z,15.15
2023-02-23T02:44:03.841Z,13.68
2023-02-23T02:48:17.077Z,12.95
2023-02-23T02:52:27.277Z,18.23
2023-02-23T02:56:34.099Z,14.98
2023-02-23T03:00:37.349Z,16.92
2023-02-23T03:04:59.959Z,21.08
2023-02-23T03:09:30.619Z,15.95
2023-02-23T03:14:04.449Z,14.95
2023-02-23T03:18:38.424Z,12.50
2023-02-23T03:23:06.515Z,13.50
2023-02-23T03:27:34.166Z,13.85
2023-02-23T03:32:03.243Z,13.27
2023-02-23T03:36:29.847Z,15.13
2023-02-23T03:40:54.664Z,16.23
2023-02-23T03:45:16.605Z,13.35
2023-02-23T03:49:41.178Z,9.55
2023-02-23T03:54:07.847Z,14.82
2023-02-23T03:58:34.872Z,7.45
2023-02-23T04:02:58.645Z,8.77
2023-02-23T04:07:25.964Z,5.03
2023-02-23T04:11:50.766Z,10.18
2023-02-23T04:15:55.764Z,10.98
2023-02-23T04:19:59.592Z,8.60
2023-02-23T04:24:03.952Z,7.97
2023-02-23T04:28:07.168Z,10.95
2023-02-23T04:32:15.906Z,9.48
2023-02-23T04:36:19.147Z,10.52
2023-02-23T04:40:24.430Z,14.73
2023-02-23T04:44:27.643Z,7.22
2023-02-23T04:48:30.716Z,9.38
2023-02-23T04:52:35.386Z,8.55
2023-02-23T04:56:40.504Z,12.50
2023-02-23T05:00:43.877Z,8.38
2023-02-23T05:04:47.121Z,15.48
2023-02-23T05:08:50.446Z,6.93
2023-02-23T05:12:55.192Z,8.18
2023-02-23T05:16:58.736Z,14.07
2023-02-23T05:21:06.522Z,9.45
2023-02-23T05:25:12.113Z,12.32
2023-02-23T05:29:16.724Z,9.32
2023-02-23T05:33:20.284Z,14.32
2023-02-23T05:37:23.400Z,7.93
2023-02-23T05:41:26.662Z,11.40
2023-02-23T05:45:31.252Z,10.93
2023-02-23T05:49:34.453Z,8.40
2023-02-23T05:53:37.457Z,8.75
2023-02-23T05:57:41.711Z,7.45
2023-02-23T06:01:46.286Z,4.53
2023-02-23T06:05:52.549Z,8.75
2023-02-23T06:09:55.546Z,6.47
2023-02-23T06:14:00.834Z,8.57
2023-02-23T06:18:05.722Z,8.70
2023-02-23T06:22:09.020Z,5.60
2023-02-23T06:26:12.056Z,5.95
2023-02-23T06:30:16.202Z,8.10
2023-02-23T06:34:21.298Z,8.85
2023-02-23T06:38:24.387Z,8.82
2023-02-23T06:42:28.152Z,8.07
2023-02-23T06:46:31.120Z,10.25
2023-02-23T06:50:35.681Z,12.07
2023-02-23T06:54:40.345Z,9.45
2023-02-23T06:58:43.769Z,6.43
2023-02-23T07:02:46.914Z,7.68
2023-02-23T07:06:52.592Z,9.43
2023-02-23T07:10:56.984Z,7.65
2023-02-23T07:15:00.091Z,8.35
2023-02-23T07:19:03.937Z,8.10
2023-02-23T07:23:08.653Z,8.20
2023-02-23T07:27:11.936Z,8.52
2023-02-23T07:31:15.196Z,7.93
2023-02-23T07:35:18.361Z,8.70
2023-02-23T07:39:22.986Z,7.78
2023-02-23T07:43:26.123Z,13.05
2023-02-23T07:47:31.235Z,10.18
2023-02-23T07:51:34.673Z,10.13
2023-02-23T07:55:40.694Z,12.50
2023-02-23T07:59:55.766Z,11.75
2023-02-23T08:03:59.393Z,12.02
2023-02-23T08:08:02.891Z,13.95
2023-02-23T08:12:08.108Z,11.30
2023-02-23T08:16:13.191Z,9.75
2023-02-23T08:20:16.502Z,19.17
2023-02-23T08:24:19.886Z,10.13
2023-02-23T08:28:25.240Z,13.95
2023-02-23T08:32:30.122Z,13.98
2023-02-23T08:36:33.212Z,16.20
2023-02-23T08:40:36.383Z,15.70
2023-02-23T08:44:40.659Z,8.27
2023-02-23T08:48:43.900Z,10.43
2023-02-23T08:52:47.048Z,10.95
2023-02-23T08:56:51.219Z,8.55
2023-02-23T09:00:56.153Z,6.60
2023-02-23T09:05:00.059Z,14.93
2023-02-23T09:09:03.426Z,11.98
2023-02-23T09:13:07.080Z,11.65
2023-02-23T09:17:12.036Z,12.18
2023-02-23T09:21:25.594Z,13.38
2023-02-23T09:25:29.527Z,8.70
2023-02-23T09:29:32.767Z,11.25
2023-02-23T09:33:37.750Z,10.38
2023-02-23T09:37:40.803Z,11.85
2023-02-23T09:42:08.913Z,10.80
2023-02-23T09:46:21.477Z,10.25
2023-02-23T09:50:30.476Z,12.45
2023-02-23T09:54:35.789Z,11.70
2023-02-23T09:58:39.752Z,11.23
2023-02-23T10:03:11.080Z,12.32
2023-02-23T10:07:22.341Z,22.77
2023-02-23T10:11:31.042Z,17.65
2023-02-23T10:15:42.119Z,15.57
2023-02-23T10:19:52.155Z,15.55
2023-02-23T10:24:02.533Z,12.80
2023-02-23T10:28:05.991Z,20.23
2023-02-23T10:32:20.744Z,20.25
2023-02-23T10:36:35.881Z,19.33
2023-02-23T10:40:40.665Z,23.42
2023-02-23T10:44:46.181Z,16.60
2023-02-23T10:48:52.144Z,27.40
2023-02-23T10:53:00.024Z,18.40
2023-02-23T10:57:06.804Z,23.77
2023-02-23T11:01:11.574Z,19.48
2023-02-23T11:05:32.083Z,22.88
2023-02-23T11:09:51.061Z,21.35
2023-02-23T11:13:56.426Z,25.25
2023-02-23T11:18:01.475Z,26.35
2023-02-23T11:22:06.979Z,24.30
2023-02-23T11:26:26.013Z,18.88
2023-02-23T11:30:38.352Z,31.98
2023-02-23T11:34:43.963Z,22.30
2023-02-23T11:38:47.978Z,36.92
2023-02-23T11:42:56.847Z,24.98
2023-02-23T11:47:01.707Z,25.00
2023-02-23T11:51:05.580Z,19.77
2023-02-23T11:55:13.886Z,19.10
2023-02-23T11:59:20.824Z,25.67
2023-02-23T12:03:27.489Z,32.22
2023-02-23T12:07:39.186Z,24.23
2023-02-23T12:11:48.769Z,24.30
2023-02-23T12:15:58.834Z,27.85
2023-02-23T12:20:11.766Z,22.83
2023-02-23T12:24:21.071Z,23.80
2023-02-23T12:28:33.319Z,33.58
2023-02-23T12:32:48.030Z,30.05
2023-02-23T12:36:59.728Z,27.13
2023-02-23T12:41:07.827Z,28.80
2023-02-23T12:45:20.706Z,23.67
2023-02-23T12:53:40.746Z,21.00
2023-02-23T12:57:50.042Z,22.67
2023-02-23T13:01:59.238Z,27.48
2023-02-23T13:06:09.211Z,23.77
2023-02-23T13:10:27.456Z,27.60
2023-02-23T13:14:43.594Z,28.85
2023-02-23T13:18:51.416Z,27.27
2023-02-23T13:23:02.087Z,25.05
2023-02-23T13:27:17.588Z,23.17
2023-02-23T13:31:26.223Z,23.48
2023-02-23T13:35:35.869Z,23.10
2023-02-23T13:40:00.644Z,22.05
2023-02-23T13:44:17.102Z,21.95
2023-02-23T13:48:54.425Z,24.75
2023-02-23T13:53:05.081Z,22.17
2023-02-23T13:57:17.144Z,27.77
2023-02-23T14:01:23.886Z,21.05
2023-02-23T14:05:30.820Z,24.95
2023-02-23T14:14:52.041Z,22.20
2023-02-23T14:19:08.259Z,21.30
2023-02-23T14:23:36.926Z,27.63
2023-02-23T14:27:45.404Z,25.17
2023-02-23T14:32:02.394Z,22.88
2023-02-23T14:36:35.387Z,24.77
2023-02-23T14:40:44.556Z,32.22
2023-02-23T14:45:01.702Z,29.27
2023-02-23T14:49:15.880Z,22.45
2023-02-23T14:53:26.256Z,28.67
2023-02-23T14:57:34.875Z,24.02
2023-02-23T15:05:52.144Z,26.90
2023-02-23T15:10:00.291Z,26.90
2023-02-23T15:14:06.353Z,26.63
2023-02-23T15:18:22.766Z,30.13
2023-02-23T15:22:29.541Z,25.05
2023-02-23T15:26:36.401Z,25.35
2023-02-23T15:30:46.807Z,37.80
2023-02-23T15:34:50.480Z,29.30
2023-02-23T15:38:56.628Z,24.00
2023-02-23T15:43:01.738Z,22.15
2023-02-23T15:47:08.215Z,32.22
2023-02-23T15:51:23.980Z,27.52
2023-02-23T15:55:30.079Z,24.73
2023-02-23T15:59:37.507Z,28.40
2023-02-23T16:04:00.054Z,25.10
2023-02-23T16:08:06.714Z,36.30
2023-02-23T16:12:14.841Z,23.08
2023-02-23T16:16:25.620Z,26.77
2023-02-23T16:20:35.856Z,30.98
2023-02-23T16:24:39.888Z,26.35
2023-02-23T16:28:44.972Z,35.80
2023-02-23T16:32:51.200Z,31.45
2023-02-23T16:36:59.157Z,31.67
2023-02-23T16:41:04.092Z,22.90
2023-02-23T16:45:08.501Z,28.60
2023-02-23T16:49:13.711Z,22.90
2023-02-23T16:53:17.330Z,23.75
2023-02-23T16:57:25.101Z,26.92
2023-02-23T17:01:28.423Z,25.58
2023-02-23T17:05:33.617Z,23.70
2023-02-23T17:09:37.125Z,24.30
2023-02-23T17:13:40.101Z,26.88
2023-02-23T17:17:43.673Z,26.05
2023-02-23T17:21:48.855Z,35.45
2023-02-23T17:25:52.750Z,31.70
2023-02-23T17:30:00.849Z,24.67
2023-02-23T17:34:04.133Z,20.88
2023-02-23T17:38:09.457Z,28.27
2023-02-23T17:42:13.031Z,24.75
2023-02-23T17:46:16.064Z,28.35
2023-02-23T17:50:22.194Z,33.10
2023-02-23T17:54:27.431Z,25.17
2023-02-23T17:58:30.699Z,29.17
2023-02-23T18:02:34.565Z,30.23
2023-02-23T18:06:37.466Z,27.58
2023-02-23T18:10:42.348Z,30.00
2023-02-23T18:14:45.649Z,29.70
2023-02-23T18:18:50.485Z,35.67
2023-02-23T18:22:53.389Z,28.13
2023-02-23T18:27:00.889Z,34.08
2023-02-23T18:31:04.327Z,31.42
2023-02-23T18:35:07.906Z,41.13
2023-02-23T18:39:12.785Z,26.75
2023-02-23T18:43:17.049Z,26.45
2023-02-23T18:47:20.771Z,32.25
2023-02-23T18:51:24.179Z,30.95
2023-02-23T18:55:27.318Z,34.45
2023-02-23T18:59:31.915Z,34.90
2023-02-23T19:03:35.139Z,36.65
2023-02-23T19:07:38.188Z,29.00
2023-02-23T19:11:42.754Z,36.53
2023-02-23T19:15:48.549Z,30.52
2023-02-23T19:19:52.171Z,34.75
2023-02-23T19:23:58.065Z,29.67
2023-02-23T19:28:01.114Z,37.17
2023-02-23T19:32:06.393Z,42.78
2023-02-23T19:36:12.591Z,29.95
2023-02-23T19:40:19.937Z,36.17
2023-02-23T19:44:24.206Z,28.35
2023-02-23T19:48:30.642Z,37.40
2023-02-23T19:52:35.360Z,40.63
2023-02-23T19:56:39.469Z,35.08
2023-02-23T20:00:42.389Z,35.35
2023-02-23T20:04:49.702Z,40.88
2023-02-23T20:08:55.122Z,35.40
2023-02-23T20:12:58.433Z,34.85
2023-02-23T20:17:01.731Z,42.58
2023-02-23T20:21:12.484Z,40.45
2023-02-23T20:25:16.523Z,35.38
2023-02-23T20:29:20.364Z,39.65
2023-02-23T20:33:23.410Z,38.13
2023-02-23T20:37:28.392Z,39.70
2023-02-23T20:41:32.143Z,41.05
2023-02-23T20:45:35.608Z,37.22
2023-02-23T20:49:41.352Z,37.25
2023-02-23T20:53:47.578Z,46.95
2023-02-23T20:57:52.141Z,40.50
2023-02-23T21:01:56.014Z,44.22
2023-02-23T21:05:59.225Z,42.53
2023-02-23T21:10:04.314Z,45.25
2023-02-23T21:14:08.862Z,59.85
2023-02-23T21:18:12.848Z,41.33
2023-02-23T21:22:17.298Z,34.88
2023-02-23T21:26:23.910Z,39.38
2023-02-23T21:30:29.884Z,41.17
2023-02-23T21:34:32.829Z,42.55
2023-02-23T21:38:36.392Z,40.13
2023-02-23T21:42:44.751Z,42.92
2023-02-23T21:46:47.856Z,36.95
2023-02-23T21:50:51.184Z,45.38
2023-02-23T21:54:54.116Z,44.38
2023-02-23T21:58:59.259Z,46.45
2023-02-23T22:03:03.279Z,40.40
2023-02-23T22:07:07.046Z,38.40
2023-02-23T22:11:11.994Z,42.83
2023-02-23T22:15:19.338Z,45.58
2023-02-23T22:19:22.503Z,37.33
2023-02-23T22:23:26.080Z,37.25
2023-02-23T22:27:29.180Z,43.53
2023-02-23T22:31:34.266Z,43.05
2023-02-23T22:35:40.978Z,42.05
2023-02-23T22:39:44.588Z,38.35
2023-02-23T22:43:49.423Z,46.97
2023-02-23T22:47:55.542Z,50.10
2023-02-23T22:51:58.483Z,44.35
2023-02-23T22:56:01.554Z,43.05
2023-02-23T23:00:12.823Z,40.30
2023-02-23T23:04:17.659Z,41.33
2023-02-23T23:08:20.644Z,40.67
2023-02-23T23:12:24.245Z,44.70
2023-02-23T23:16:32.210Z,41.15
2023-02-23T23:20:36.774Z,38.75
2023-02-23T23:24:46.592Z,41.80
2023-02-23T23:28:53.344Z,36.80
2023-02-23T23:32:56.469Z,36.85
2023-02-23T23:37:03.187Z,37.17
2023-02-23T23:41:14.353Z,42.67
2023-02-23T23:45:24.285Z,38.22
2023-02-23T23:49:28.316Z,46.97
2023-02-23T23:53:35.688Z,33.72
2023-02-23T23:57:39.411Z,43.47
